HADES74 EGVO-EGVO

Flight info

Callsign HADES74
Flight time 1h 44m
Altitude 3000
Route OPR EGWN EGSS EGMC
Aircraft H47/M-VGDW/C

Departure

Time 2026-04-22 12:05
Airport RAF Odiham (EGVO)

Arrival

Time 2026-04-22 13:49
Airport RAF Odiham (EGVO)
Time Latitude Longitude Altitude Speed Heading
2026-04-22 11:56 51.23812 -0.94934 411 ft 0 kts 132°
2026-04-22 12:00 51.23769 -0.94906 412 ft 11 kts 232°
2026-04-22 12:01 51.23714 -0.94991 412 ft 14 kts 221°
2026-04-22 12:01 51.23645 -0.95022 412 ft 9 kts 180°
2026-04-22 12:01 51.23580 -0.95081 412 ft 13 kts 225°
2026-04-22 12:01 51.23556 -0.95230 412 ft 14 kts 264°
2026-04-22 12:02 51.23539 -0.95393 412 ft 16 kts 263°
2026-04-22 12:02 51.23510 -0.95544 412 ft 10 kts 219°
2026-04-22 12:02 51.23460 -0.95556 412 ft 7 kts 118°
2026-04-22 12:02 51.23437 -0.95371 418 ft 25 kts 91°
2026-04-22 12:03 51.23425 -0.94955 447 ft 51 kts 87°
2026-04-22 12:03 51.23406 -0.94262 489 ft 70 kts 88°
2026-04-22 12:03 51.23390 -0.93435 536 ft 78 kts 88°
2026-04-22 12:03 51.23378 -0.92504 745 ft 91 kts 85°
2026-04-22 12:04 51.23737 -0.91654 876 ft 105 kts 28°
2026-04-22 12:04 51.24521 -0.91852 893 ft 128 kts 339°
2026-04-22 12:04 51.25336 -0.92596 902 ft 141 kts 335°
2026-04-22 12:04 51.26166 -0.93424 1002 ft 140 kts 333°
2026-04-22 12:05 51.26957 -0.94277 1148 ft 134 kts 331°
2026-04-22 12:05 51.27695 -0.95128 1101 ft 128 kts 330°
2026-04-22 12:05 51.28399 -0.95966 1065 ft 126 kts 329°
2026-04-22 12:05 51.29104 -0.96849 999 ft 128 kts 328°
2026-04-22 12:06 51.29801 -0.97736 1157 ft 132 kts 328°
2026-04-22 12:06 51.30544 -0.98699 1198 ft 143 kts 324°
2026-04-22 12:06 51.31263 -0.99845 1222 ft 141 kts 321°
2026-04-22 12:06 51.31957 -1.00905 1439 ft 139 kts 322°
2026-04-22 12:07 51.32716 -1.01957 1379 ft 149 kts 330°
2026-04-22 12:07 51.33550 -1.02954 1488 ft 152 kts 327°
2026-04-22 12:07 51.34376 -1.04026 1653 ft 153 kts 326°
2026-04-22 12:07 51.35194 -1.05135 1833 ft 156 kts 326°
2026-04-22 12:08 51.35745 -1.05905 1957 ft 160 kts 324°
2026-04-22 12:08 51.36570 -1.07126 2193 ft 158 kts 323°
2026-04-22 12:08 51.37352 -1.08290 2557 ft 152 kts 330°
2026-04-22 12:08 51.38253 -1.09293 2682 ft 161 kts 335°
2026-04-22 12:09 51.39224 -1.10264 2741 ft 169 kts 337°
2026-04-22 12:09 51.40223 -1.11253 2707 ft 170 kts 337°
2026-04-22 12:09 51.41225 -1.12255 2845 ft 164 kts 335°
2026-04-22 12:09 51.42164 -1.13196 3010 ft 159 kts 333°
2026-04-22 12:10 51.43068 -1.14227 3058 ft 160 kts 333°
2026-04-22 12:10 51.43998 -1.15259 3072 ft 165 kts 334°
2026-04-22 12:10 51.44912 -1.16434 3014 ft 173 kts 328°
2026-04-22 12:10 51.45852 -1.17633 2943 ft 171 kts 329°
2026-04-22 12:11 51.46765 -1.18820 2964 ft 168 kts 329°
2026-04-22 12:11 51.47680 -1.20015 3036 ft 165 kts 329°
2026-04-22 12:11 51.48596 -1.21011 3185 ft 154 kts 339°
2026-04-22 12:11 51.49467 -1.21830 3533 ft 138 kts 341°
2026-04-22 12:12 51.50295 -1.22542 3892 ft 131 kts 346°
2026-04-22 12:12 51.51080 -1.23024 4424 ft 110 kts 359°
2026-04-22 12:12 51.51874 -1.23234 4253 ft 122 kts
2026-04-22 12:12 51.52713 -1.23351 4195 ft 119 kts 10°
2026-04-22 12:13 51.53537 -1.23273 4056 ft 119 kts 28°
2026-04-22 12:13 51.54289 -1.22802 3872 ft 117 kts 38°
2026-04-22 12:13 51.55016 -1.22210 3664 ft 116 kts 41°
2026-04-22 12:13 51.55699 -1.21565 3518 ft 113 kts 43°
2026-04-22 12:14 51.56382 -1.20883 3328 ft 118 kts 43°
2026-04-22 12:14 51.57112 -1.20180 3079 ft 122 kts 43°
2026-04-22 12:14 51.57802 -1.19398 2870 ft 122 kts 48°
2026-04-22 12:14 51.58419 -1.18572 2775 ft 113 kts 51°
2026-04-22 12:15 51.58981 -1.17702 2646 ft 113 kts 54°
2026-04-22 12:15 51.59546 -1.16763 2399 ft 120 kts 53°
2026-04-22 12:15 51.60105 -1.15795 2421 ft 119 kts 54°
2026-04-22 12:15 51.60784 -1.14934 2368 ft 127 kts 41°
2026-04-22 12:16 51.61547 -1.14135 2338 ft 130 kts 41°
2026-04-22 12:16 51.62296 -1.13316 2336 ft 131 kts 39°
2026-04-22 12:16 51.63102 -1.12655 2347 ft 134 kts 34°
2026-04-22 12:16 51.63989 -1.12041 2321 ft 138 kts 31°
2026-04-22 12:17 51.64864 -1.11455 2460 ft 136 kts 32°
2026-04-22 12:17 51.65744 -1.10855 2674 ft 138 kts 31°
2026-04-22 12:17 51.66630 -1.10239 2768 ft 140 kts 33°
2026-04-22 12:17 51.67544 -1.09636 2925 ft 142 kts 30°
2026-04-22 12:18 51.68491 -1.09078 2859 ft 146 kts 30°
2026-04-22 12:18 51.69471 -1.08661 2831 ft 147 kts 19°
2026-04-22 12:18 51.69821 -1.08580 2807 ft 148 kts 19°
2026-04-22 12:18 51.70115 -1.08510 2797 ft 148 kts 19°
2026-04-22 12:19 51.71023 -1.08016 2886 ft 136 kts 34°
2026-04-22 12:19 51.71952 -1.07599 2904 ft 142 kts 11°
2026-04-22 12:19 51.72870 -1.08196 2933 ft 152 kts 324°
2026-04-22 12:19 51.73322 -1.09794 2744 ft 167 kts 273°
2026-04-22 12:20 51.72963 -1.11489 2733 ft 160 kts 222°
2026-04-22 12:20 51.72053 -1.12350 2763 ft 153 kts 191°
2026-04-22 12:20 51.71017 -1.12899 2730 ft 158 kts 186°
2026-04-22 12:20 51.69948 -1.13360 2757 ft 159 kts 184°
2026-04-22 12:21 51.68887 -1.13733 2805 ft 152 kts 184°
2026-04-22 12:21 51.67876 -1.14126 2888 ft 149 kts 182°
2026-04-22 12:21 51.66869 -1.14435 2843 ft 142 kts 167°
2026-04-22 12:21 51.66137 -1.13780 2832 ft 112 kts 111°
2026-04-22 12:22 51.66170 -1.12577 2847 ft 113 kts 70°
2026-04-22 12:22 51.66752 -1.11651 2781 ft 129 kts 39°
2026-04-22 12:22 51.67599 -1.11069 2735 ft 133 kts 33°
2026-04-22 12:22 51.68453 -1.10522 2771 ft 130 kts 31°
2026-04-22 12:23 51.69294 -1.10053 2827 ft 127 kts 29°
2026-04-22 12:23 51.70160 -1.09631 2754 ft 131 kts 28°
2026-04-22 12:23 51.71006 -1.09109 2644 ft 128 kts 32°
2026-04-22 12:23 51.71828 -1.08710 2610 ft 128 kts
2026-04-22 12:24 51.72387 -1.09658 2677 ft 126 kts 273°
2026-04-22 12:24 51.72005 -1.10658 2622 ft 95 kts 181°
2026-04-22 12:24 51.71492 -1.10271 2280 ft 94 kts 108°
2026-04-22 12:24 51.71384 -1.09061 1610 ft 122 kts 89°
2026-04-22 12:25 51.71396 -1.07687 1329 ft 118 kts 85°
2026-04-22 12:25 51.71449 -1.06414 1324 ft 110 kts 81°
2026-04-22 12:25 51.71546 -1.05154 1239 ft 116 kts 78°
2026-04-22 12:25 51.71695 -1.03835 1234 ft 123 kts 76°
2026-04-22 12:26 51.71906 -1.02501 1282 ft 120 kts 71°
2026-04-22 12:26 51.72158 -1.01266 1308 ft 116 kts 70°
2026-04-22 12:26 51.72473 -1.00023 1198 ft 121 kts 66°
2026-04-22 12:26 51.72803 -0.98767 1189 ft 121 kts 66°
2026-04-22 12:27 51.73133 -0.97501 1208 ft 125 kts 67°
2026-04-22 12:27 51.73481 -0.96186 1185 ft 129 kts 65°
2026-04-22 12:27 51.73850 -0.94848 1161 ft 132 kts 65°
2026-04-22 12:27 51.74224 -0.93493 1111 ft 130 kts 64°
2026-04-22 12:28 51.74635 -0.92188 1145 ft 132 kts 62°
2026-04-22 12:28 51.75082 -0.90816 1163 ft 141 kts 62°
2026-04-22 12:28 51.75513 -0.89414 1174 ft 139 kts 65°
2026-04-22 12:28 51.75928 -0.88016 1214 ft 137 kts 65°
2026-04-22 12:29 51.76291 -0.86605 1167 ft 135 kts 69°
2026-04-22 12:29 51.76545 -0.85152 1148 ft 136 kts 78°
2026-04-22 12:29 51.76716 -0.83659 1109 ft 135 kts 79°
2026-04-22 12:29 51.76850 -0.82119 1100 ft 139 kts 84°
2026-04-22 12:30 51.76972 -0.79000 1100 ft 141 kts 85°
2026-04-22 12:30 51.77022 -0.77411 1150 ft 141 kts 86°
2026-04-22 12:30 51.77080 -0.75865 1135 ft 138 kts 83°
2026-04-22 12:31 51.77236 -0.74310 1068 ft 140 kts 79°
2026-04-22 12:31 51.77447 -0.72797 1042 ft 139 kts 76°
2026-04-22 12:31 51.77772 -0.71356 1150 ft 130 kts 54°
2026-04-22 12:31 51.78431 -0.70387 1366 ft 130 kts 45°
2026-04-22 12:32 51.79151 -0.69442 1184 ft 133 kts 41°
2026-04-22 12:32 51.80365 -0.67372 1727 ft 130 kts 72°
2026-04-22 12:32 51.80526 -0.65879 1826 ft 139 kts 81°
2026-04-22 12:33 51.80669 -0.64328 1944 ft 137 kts 82°
2026-04-22 12:33 51.80811 -0.62843 1878 ft 131 kts 79°
2026-04-22 12:33 51.81003 -0.61418 2010 ft 128 kts 79°
2026-04-22 12:33 51.81206 -0.60033 2013 ft 126 kts 79°
2026-04-22 12:34 51.81419 -0.58671 2009 ft 122 kts 76°
2026-04-22 12:34 51.81620 -0.57311 1950 ft 126 kts 76°
2026-04-22 12:34 51.81828 -0.55919 1780 ft 130 kts 78°
2026-04-22 12:34 51.82055 -0.54500 1869 ft 130 kts 75°
2026-04-22 12:35 51.82296 -0.53050 1847 ft 135 kts 75°
2026-04-22 12:35 51.82523 -0.51587 1910 ft 133 kts 75°
2026-04-22 12:35 51.82681 -0.50608 1894 ft 136 kts 77°
2026-04-22 12:35 51.82969 -0.49135 1860 ft 138 kts 74°
2026-04-22 12:36 51.83254 -0.47686 1845 ft 135 kts 71°
2026-04-22 12:36 51.83539 -0.46248 1912 ft 136 kts 75°
2026-04-22 12:36 51.83825 -0.44758 1796 ft 139 kts 73°
2026-04-22 12:36 51.84047 -0.43240 1738 ft 139 kts 78°
2026-04-22 12:37 51.84233 -0.41738 1934 ft 133 kts 79°
2026-04-22 12:37 51.84408 -0.40241 1992 ft 133 kts 82°
2026-04-22 12:37 51.84564 -0.38781 2092 ft 131 kts 83°
2026-04-22 12:37 51.84708 -0.37390 1995 ft 118 kts 84°
2026-04-22 12:38 51.84832 -0.36162 2083 ft 107 kts 86°
2026-04-22 12:38 51.84947 -0.34988 1968 ft 105 kts 86°
2026-04-22 12:38 51.85042 -0.33779 1907 ft 113 kts 87°
2026-04-22 12:38 51.85037 -0.32435 1890 ft 127 kts 91°
2026-04-22 12:39 51.84984 -0.30957 1775 ft 133 kts 92°
2026-04-22 12:39 51.84886 -0.27976 1831 ft 129 kts 92°
2026-04-22 12:39 51.84832 -0.26545 1924 ft 129 kts 93°
2026-04-22 12:40 51.84848 -0.25079 1806 ft 127 kts 82°
2026-04-22 12:40 51.85066 -0.23705 1820 ft 130 kts 78°
2026-04-22 12:40 51.85155 -0.22199 1791 ft 134 kts 87°
2026-04-22 12:40 51.85253 -0.20704 1763 ft 140 kts 84°
2026-04-22 12:41 51.85331 -0.19089 1719 ft 140 kts 87°
2026-04-22 12:41 51.85346 -0.17536 1798 ft 138 kts 87°
2026-04-22 12:41 51.85336 -0.16009 1771 ft 135 kts 92°
2026-04-22 12:41 51.85287 -0.14521 1682 ft 130 kts 92°
2026-04-22 12:42 51.85381 -0.13158 1763 ft 118 kts 74°
2026-04-22 12:42 51.85680 -0.11909 1791 ft 117 kts 69°
2026-04-22 12:42 51.85986 -0.10690 1718 ft 118 kts 73°
2026-04-22 12:42 51.86273 -0.09422 1779 ft 124 kts 72°
2026-04-22 12:43 51.86563 -0.08041 1626 ft 130 kts 73°
2026-04-22 12:43 51.86839 -0.06688 1688 ft 127 kts 73°
2026-04-22 12:43 51.87134 -0.05295 1593 ft 131 kts 75°
2026-04-22 12:43 51.87405 -0.03926 1645 ft 125 kts 73°
2026-04-22 12:44 51.87651 -0.02590 1702 ft 124 kts 76°
2026-04-22 12:44 51.87848 -0.01242 1679 ft 120 kts 78°
2026-04-22 12:44 51.88012 0.00090 1654 ft 120 kts 80°
2026-04-22 12:44 51.88131 0.01448 1522 ft 124 kts 83°
2026-04-22 12:45 51.88224 0.02836 1372 ft 127 kts 84°
2026-04-22 12:45 51.88305 0.04269 1333 ft 128 kts 84°
2026-04-22 12:45 51.88343 0.05696 1442 ft 129 kts 87°
2026-04-22 12:45 51.88364 0.07183 1469 ft 133 kts 89°
2026-04-22 12:46 51.88354 0.08700 1371 ft 134 kts 88°
2026-04-22 12:46 51.88490 0.10137 1515 ft 127 kts 78°
2026-04-22 12:46 51.88680 0.11611 1466 ft 136 kts 78°
2026-04-22 12:46 51.88788 0.13135 1496 ft 135 kts 88°
2026-04-22 12:47 51.88812 0.14659 1509 ft 137 kts 87°
2026-04-22 12:47 51.88951 0.16146 1493 ft 132 kts 79°
2026-04-22 12:47 51.89119 0.17605 1493 ft 132 kts 80°
2026-04-22 12:47 51.89240 0.19090 1405 ft 134 kts 88°
2026-04-22 12:48 51.89069 0.20551 1546 ft 133 kts 108°
2026-04-22 12:48 51.88663 0.21930 1496 ft 134 kts 115°
2026-04-22 12:48 51.88071 0.23128 1522 ft 136 kts 126°
2026-04-22 12:48 51.87470 0.24304 1482 ft 134 kts 123°
2026-04-22 12:49 51.86928 0.25476 1554 ft 130 kts 117°
2026-04-22 12:49 51.86701 0.26871 1520 ft 128 kts 90°
2026-04-22 12:49 51.86713 0.28325 1459 ft 131 kts 87°
2026-04-22 12:49 51.86797 0.29782 1444 ft 130 kts 83°
2026-04-22 12:50 51.86898 0.31237 1416 ft 128 kts 83°
2026-04-22 12:50 51.86998 0.32640 1547 ft 124 kts 83°
2026-04-22 12:50 51.87102 0.34040 1549 ft 127 kts 83°
2026-04-22 12:50 51.87208 0.35453 1577 ft 127 kts 83°
2026-04-22 12:51 51.87323 0.36821 1646 ft 117 kts 81°
2026-04-22 12:51 51.87441 0.38107 1401 ft 113 kts 81°
2026-04-22 12:51 51.87556 0.39291 1289 ft 100 kts 81°
2026-04-22 12:51 51.87665 0.40383 1216 ft 98 kts 80°
2026-04-22 12:52 51.88008 0.41263 1092 ft 96 kts 37°
2026-04-22 12:52 51.88660 0.41567 961 ft 99 kts 21°
2026-04-22 12:52 51.89203 0.42166 742 ft 95 kts 64°
2026-04-22 12:52 51.89387 0.43104 656 ft 82 kts 85°
2026-04-22 12:53 51.89436 0.43934 542 ft 60 kts 83°
2026-04-22 12:53 51.89469 0.44469 483 ft 35 kts 83°
2026-04-22 12:53 51.89483 0.44710 347 ft 11 kts 84°
2026-04-22 12:53 51.89486 0.44744 313 ft 2 kts 81°
2026-04-22 12:54 51.89487 0.44771 325 ft 5 kts 77°
2026-04-22 12:54 51.89498 0.44769 316 ft 2 kts 27°
2026-04-22 12:54 51.89501 0.44785 330 ft 4 kts 127°
2026-04-22 12:54 51.89486 0.44800 331 ft 3 kts 84°
2026-04-22 12:55 51.89484 0.44761 365 ft 14 kts 84°
2026-04-22 12:55 51.89471 0.44578 485 ft 14 kts 84°
2026-04-22 12:55 51.89497 0.45222 626 ft 92 kts 85°
2026-04-22 12:55 51.89545 0.46438 766 ft 118 kts 85°
2026-04-22 12:56 51.89613 0.47825 1061 ft 127 kts 85°
2026-04-22 12:56 51.89687 0.49289 1236 ft 134 kts 88°
2026-04-22 12:56 51.89777 0.50803 1541 ft 132 kts 90°
2026-04-22 12:56 51.89554 0.52238 1674 ft 137 kts 114°
2026-04-22 12:57 51.89166 0.53601 1806 ft 130 kts 112°
2026-04-22 12:57 51.88743 0.54881 1888 ft 127 kts 117°
2026-04-22 12:57 51.88188 0.56007 1920 ft 130 kts 124°
2026-04-22 12:57 51.87564 0.57094 1910 ft 133 kts 130°
2026-04-22 12:58 51.86867 0.58088 1899 ft 131 kts 132°
2026-04-22 12:58 51.86179 0.59056 2008 ft 130 kts 133°
2026-04-22 12:58 51.85486 0.60009 2022 ft 129 kts 134°
2026-04-22 12:58 51.84790 0.60910 2110 ft 130 kts 137°
2026-04-22 12:59 51.84011 0.61708 2078 ft 137 kts 142°
2026-04-22 12:59 51.83178 0.62494 2012 ft 138 kts 143°
2026-04-22 12:59 51.82355 0.63255 2040 ft 136 kts 143°
2026-04-22 12:59 51.81531 0.64014 2011 ft 137 kts 142°
2026-04-22 13:00 51.80984 0.64563 1996 ft 139 kts 141°
2026-04-22 13:00 51.79947 0.65750 1988 ft 135 kts 135°
2026-04-22 13:00 51.79470 0.66382 2002 ft 133 kts 134°
2026-04-22 13:00 51.78790 0.67371 2063 ft 129 kts 130°
2026-04-22 13:01 51.78135 0.68331 2112 ft 128 kts 131°
2026-04-22 13:01 51.77465 0.69273 2151 ft 129 kts 132°
2026-04-22 13:01 51.76778 0.70227 2110 ft 132 kts 134°
2026-04-22 13:01 51.76067 0.71199 2032 ft 133 kts 133°
2026-04-22 13:02 51.75386 0.72209 1904 ft 131 kts 131°
2026-04-22 13:02 51.74714 0.73206 1885 ft 132 kts 134°
2026-04-22 13:02 51.73895 0.73938 1894 ft 137 kts 146°
2026-04-22 13:02 51.72936 0.74243 1835 ft 148 kts 174°
2026-04-22 13:03 51.71941 0.74204 2001 ft 139 kts 173°
2026-04-22 13:03 51.70949 0.74159 2018 ft 144 kts 174°
2026-04-22 13:03 51.69928 0.74109 2036 ft 147 kts 174°
2026-04-22 13:03 51.68908 0.74047 1985 ft 148 kts 175°
2026-04-22 13:04 51.67876 0.73936 2042 ft 147 kts 176°
2026-04-22 13:04 51.66847 0.73791 2022 ft 148 kts 177°
2026-04-22 13:04 51.65818 0.73677 1975 ft 149 kts 177°
2026-04-22 13:04 51.64784 0.73551 1928 ft 147 kts 177°
2026-04-22 13:05 51.63763 0.73424 1910 ft 146 kts 176°
2026-04-22 13:05 51.62752 0.73317 1932 ft 146 kts 175°
2026-04-22 13:05 51.61730 0.73265 1890 ft 146 kts 174°
2026-04-22 13:05 51.60718 0.73219 1929 ft 146 kts 174°
2026-04-22 13:06 51.59708 0.73148 1857 ft 149 kts 175°
2026-04-22 13:06 51.58667 0.73107 1774 ft 151 kts 172°
2026-04-22 13:06 51.57598 0.73087 1692 ft 152 kts 174°
2026-04-22 13:06 51.56558 0.73012 1676 ft 152 kts 175°
2026-04-22 13:07 51.55503 0.72911 1701 ft 150 kts 177°
2026-04-22 13:07 51.54461 0.72794 1742 ft 148 kts 176°
2026-04-22 13:07 51.53423 0.72665 1834 ft 147 kts 177°
2026-04-22 13:07 51.52392 0.72524 1802 ft 153 kts 178°
2026-04-22 13:08 51.51320 0.72361 1801 ft 150 kts 178°
2026-04-22 13:08 51.50312 0.72222 1927 ft 144 kts 176°
2026-04-22 13:08 51.49327 0.72123 2071 ft 140 kts 175°
2026-04-22 13:08 51.48373 0.72032 2172 ft 134 kts 174°
2026-04-22 13:09 51.47464 0.71975 2157 ft 130 kts 172°
2026-04-22 13:09 51.46568 0.72093 2168 ft 129 kts 161°
2026-04-22 13:09 51.45686 0.72362 2023 ft 130 kts 161°
2026-04-22 13:09 51.44754 0.72443 1867 ft 138 kts 174°
2026-04-22 13:10 51.43789 0.72091 1625 ft 149 kts 200°
2026-04-22 13:10 51.43008 0.70919 1394 ft 158 kts 230°
2026-04-22 13:10 51.42361 0.69589 1549 ft 145 kts 231°
2026-04-22 13:10 51.41740 0.68258 1611 ft 154 kts 231°
2026-04-22 13:11 51.41094 0.66805 1585 ft 164 kts 231°
2026-04-22 13:11 51.40435 0.65325 1631 ft 160 kts 231°
2026-04-22 13:11 51.39819 0.63876 1781 ft 155 kts 231°
2026-04-22 13:11 51.39176 0.62469 1852 ft 157 kts 229°
2026-04-22 13:12 51.38528 0.61083 2008 ft 154 kts 228°
2026-04-22 13:12 51.37873 0.59708 2062 ft 157 kts 228°
2026-04-22 13:12 51.37190 0.58319 2066 ft 161 kts 225°
2026-04-22 13:12 51.36400 0.57063 1979 ft 158 kts 208°
2026-04-22 13:13 51.35439 0.56302 1887 ft 151 kts 196°
2026-04-22 13:13 51.34484 0.55636 1747 ft 153 kts 198°
2026-04-22 13:13 51.33477 0.54938 1616 ft 159 kts 203°
2026-04-22 13:13 51.32568 0.53901 1586 ft 163 kts 219°
2026-04-22 13:14 51.31776 0.52560 1551 ft 164 kts 225°
2026-04-22 13:14 51.31021 0.51249 1594 ft 160 kts 224°
2026-04-22 13:14 51.30233 0.49974 1528 ft 160 kts 223°
2026-04-22 13:14 51.29459 0.48712 1374 ft 161 kts 223°
2026-04-22 13:15 51.28681 0.47433 1284 ft 155 kts 224°
2026-04-22 13:15 51.27970 0.46208 1182 ft 144 kts 225°
2026-04-22 13:15 51.27362 0.44983 1120 ft 143 kts 238°
2026-04-22 13:15 51.26877 0.43597 1060 ft 142 kts 241°
2026-04-22 13:16 51.26430 0.42193 1053 ft 140 kts 243°
2026-04-22 13:16 51.26054 0.40749 1009 ft 141 kts 257°
2026-04-22 13:16 51.26146 0.39235 933 ft 139 kts 298°
2026-04-22 13:16 51.26493 0.37864 1014 ft 131 kts 298°
2026-04-22 13:17 51.26847 0.36500 1023 ft 136 kts 299°
2026-04-22 13:17 51.27241 0.35103 950 ft 136 kts 303°
2026-04-22 13:17 51.27842 0.34498 991 ft 84 kts 32°
2026-04-22 13:17 51.28024 0.35205 904 ft 80 kts 115°
2026-04-22 13:18 51.27559 0.35458 890 ft 59 kts 161°
2026-04-22 13:18 51.27372 0.35422 699 ft 7 kts 136°
2026-04-22 13:18 51.27315 0.35423 693 ft 11 kts 107°
2026-04-22 13:18 51.27279 0.35426 718 ft 5 kts 88°
2026-04-22 13:19 51.27261 0.35461 682 ft 4 kts 77°
2026-04-22 13:19 51.27253 0.35509 573 ft 3 kts 73°
2026-04-22 13:19 51.27252 0.35513 488 ft 1 kts 70°
2026-04-22 13:19 51.27255 0.35521 473 ft 2 kts 70°
2026-04-22 13:20 51.27255 0.35523 472 ft 0 kts 71°
2026-04-22 13:22 51.27255 0.35524 472 ft 0 kts 71°
2026-04-22 13:23 51.27256 0.35527 485 ft 5 kts 27°
2026-04-22 13:23 51.27265 0.35519 491 ft 2 kts 192°
2026-04-22 13:24 51.27274 0.35545 559 ft 3 kts 55°
2026-04-22 13:24 51.27237 0.35418 659 ft 17 kts 59°
2026-04-22 13:24 51.27246 0.35418 717 ft 40 kts 65°
2026-04-22 13:24 51.27125 0.36179 829 ft 107 kts 131°
2026-04-22 13:25 51.26297 0.35926 781 ft 144 kts 220°
2026-04-22 13:25 51.25673 0.34676 934 ft 142 kts 247°
2026-04-22 13:25 51.25732 0.33786 989 ft 105 kts 330°
2026-04-22 13:25 51.26498 0.33838 993 ft 80 kts 23°
2026-04-22 13:26 51.26856 0.34000 940 ft 80 kts 28°
2026-04-22 13:26 51.27278 0.34343 909 ft 38 kts 56°
2026-04-22 13:26 51.27298 0.34403 842 ft 2 kts 72°
2026-04-22 13:26 51.27310 0.34472 720 ft 5 kts 69°
2026-04-22 13:27 51.27308 0.34488 620 ft 3 kts 71°
2026-04-22 13:27 51.27315 0.34504 527 ft 1 kts 69°
2026-04-22 13:27 51.27316 0.34509 480 ft 1 kts 69°
2026-04-22 13:27 51.27316 0.34510 479 ft 0 kts 68°
2026-04-22 13:29 51.27314 0.34507 491 ft 1 kts 70°
2026-04-22 13:29 51.27321 0.34524 563 ft 7 kts 91°
2026-04-22 13:30 51.27084 0.34254 775 ft 92 kts 233°
2026-04-22 13:30 51.26760 0.32972 754 ft 144 kts 255°
2026-04-22 13:30 51.26522 0.31262 537 ft 166 kts 255°
2026-04-22 13:30 51.26195 0.29547 636 ft 158 kts 249°
2026-04-22 13:31 51.25814 0.27887 760 ft 163 kts 250°
2026-04-22 13:31 51.25408 0.26156 751 ft 166 kts 251°
2026-04-22 13:31 51.25019 0.24406 734 ft 171 kts 250°
2026-04-22 13:31 51.24650 0.22625 808 ft 163 kts 251°
2026-04-22 13:32 51.24347 0.20929 910 ft 162 kts 259°
2026-04-22 13:32 51.24411 0.19213 1036 ft 157 kts 290°
2026-04-22 13:32 51.24898 0.17652 1129 ft 157 kts 303°
2026-04-22 13:32 51.25449 0.16095 1235 ft 165 kts 306°
2026-04-22 13:33 51.26006 0.14469 1122 ft 169 kts 300°
2026-04-22 13:33 51.26200 0.12644 1133 ft 164 kts 265°
2026-04-22 13:33 51.25903 0.10927 1323 ft 156 kts 248°
2026-04-22 13:33 51.25511 0.09296 1213 ft 158 kts 251°
2026-04-22 13:34 51.25278 0.07632 1120 ft 152 kts 278°
2026-04-22 13:34 51.25509 0.05994 1032 ft 152 kts 285°
2026-04-22 13:34 51.25772 0.04310 1089 ft 161 kts 287°
2026-04-22 13:34 51.26218 0.02657 1002 ft 163 kts 302°
2026-04-22 13:35 51.26763 0.01043 1007 ft 167 kts 298°
2026-04-22 13:35 51.27008 -0.00738 983 ft 167 kts 268°
2026-04-22 13:35 51.26627 -0.02492 964 ft 165 kts 236°
2026-04-22 13:35 51.26072 -0.03992 1368 ft 157 kts 248°
2026-04-22 13:36 51.26004 -0.05869 1253 ft 174 kts 269°
2026-04-22 13:36 51.25932 -0.07789 1300 ft 169 kts 269°
2026-04-22 13:36 51.26000 -0.09649 1177 ft 170 kts 284°
2026-04-22 13:36 51.26208 -0.11515 1291 ft 170 kts 282°
2026-04-22 13:37 51.26434 -0.13377 1212 ft 168 kts 285°
2026-04-22 13:37 51.26666 -0.15142 1310 ft 162 kts 286°
2026-04-22 13:37 51.26803 -0.16926 1415 ft 160 kts 268°
2026-04-22 13:37 51.26554 -0.18669 1493 ft 163 kts 252°
2026-04-22 13:38 51.26137 -0.20382 1382 ft 171 kts 247°
2026-04-22 13:38 51.25686 -0.24090 1083 ft 168 kts 276°
2026-04-22 13:38 51.25601 -0.25906 976 ft 160 kts 241°
2026-04-22 13:39 51.24870 -0.27251 779 ft 160 kts 227°
2026-04-22 13:39 51.24505 -0.28872 680 ft 159 kts 270°
2026-04-22 13:39 51.24703 -0.30555 711 ft 151 kts 300°
2026-04-22 13:39 51.24968 -0.32117 981 ft 151 kts 275°
2026-04-22 13:40 51.24931 -0.33792 1048 ft 153 kts 269°
2026-04-22 13:40 51.24896 -0.35528 1121 ft 161 kts 270°
2026-04-22 13:40 51.24853 -0.37344 980 ft 164 kts 268°
2026-04-22 13:40 51.24802 -0.39165 1047 ft 163 kts 268°
2026-04-22 13:41 51.24778 -0.41000 899 ft 171 kts 270°
2026-04-22 13:41 51.24731 -0.42906 852 ft 169 kts 264°
2026-04-22 13:41 51.24620 -0.44459 981 ft 166 kts 263°
2026-04-22 13:41 51.24436 -0.46324 898 ft 169 kts 261°
2026-04-22 13:42 51.24228 -0.48137 975 ft 164 kts 257°
2026-04-22 13:42 51.23976 -0.49878 1077 ft 162 kts 257°
2026-04-22 13:42 51.23733 -0.51700 1045 ft 173 kts 258°
2026-04-22 13:42 51.23475 -0.53538 1038 ft 169 kts 257°
2026-04-22 13:43 51.23187 -0.55416 1261 ft 171 kts 257°
2026-04-22 13:43 51.22969 -0.57250 1286 ft 166 kts 266°
2026-04-22 13:43 51.22996 -0.59104 1145 ft 168 kts 276°
2026-04-22 13:43 51.22911 -0.60924 1186 ft 164 kts 261°
2026-04-22 13:44 51.22757 -0.62767 1138 ft 170 kts 265°
2026-04-22 13:44 51.22658 -0.64619 1212 ft 165 kts 268°
2026-04-22 13:44 51.22604 -0.66439 1245 ft 166 kts 271°
2026-04-22 13:44 51.22584 -0.68294 1261 ft 168 kts 272°
2026-04-22 13:45 51.22584 -0.70179 1242 ft 168 kts 271°
2026-04-22 13:45 51.22584 -0.72024 1348 ft 170 kts 274°
2026-04-22 13:45 51.22653 -0.73921 1318 ft 172 kts 277°
2026-04-22 13:45 51.22754 -0.75819 1343 ft 168 kts 276°
2026-04-22 13:46 51.22817 -0.77715 1381 ft 173 kts 275°
2026-04-22 13:46 51.22863 -0.79587 1371 ft 169 kts 274°
2026-04-22 13:46 51.22925 -0.81449 1413 ft 165 kts 277°
2026-04-22 13:46 51.23011 -0.83291 1324 ft 167 kts 277°
2026-04-22 13:47 51.23101 -0.85109 1219 ft 167 kts 277°
2026-04-22 13:47 51.23194 -0.86934 1117 ft 157 kts 277°
2026-04-22 13:47 51.23260 -0.88616 1042 ft 148 kts 276°
2026-04-22 13:47 51.23307 -0.90206 867 ft 140 kts 276°
2026-04-22 13:48 51.23346 -0.91757 716 ft 137 kts 274°
2026-04-22 13:48 51.23385 -0.93231 572 ft 128 kts 276°
2026-04-22 13:48 51.23416 -0.94541 501 ft 107 kts 276°
2026-04-22 13:48 51.23431 -0.95303 478 ft 96 kts 278°
2026-04-22 13:49 51.23454 -0.95501 523 ft 36 kts 96°
2026-04-22 13:49 51.23434 -0.95215 434 ft 16 kts 79°
2026-04-22 13:49 51.23437 -0.95132 417 ft 3 kts 70°
2026-04-22 13:49 51.23450 -0.95070 412 ft 10 kts 52°
2026-04-22 13:50 51.23509 -0.94982 412 ft 15 kts 42°
2026-04-22 13:50 51.23599 -0.94840 412 ft 17 kts 43°
2026-04-22 13:50 51.23683 -0.94718 412 ft 15 kts 41°
2026-04-22 13:50 51.23751 -0.94651 412 ft 7 kts 341°
2026-04-22 13:51 51.23767 -0.94665 412 ft 0 kts 315°
2026-04-22 13:51 51.23772 -0.94673 412 ft 2 kts 315°
2026-04-22 13:51 51.23789 -0.94707 412 ft 5 kts 307°
2026-04-22 13:51 51.23810 -0.94751 412 ft 4 kts 307°
2026-04-22 13:52 51.23824 -0.94781 412 ft 2 kts 308°
2026-04-22 13:52 51.23826 -0.94785 412 ft 0 kts 308°
2026-04-22 13:52 51.23828 -0.94788 412 ft 1 kts 308°
2026-04-22 13:52 51.23832 -0.94807 412 ft 5 kts 251°
2026-04-22 13:53 51.23806 -0.94859 412 ft 6 kts 221°
2026-04-22 13:53 51.23792 -0.94912 412 ft 5 kts 295°
2026-04-22 13:53 51.23803 -0.94940 412 ft 0 kts 309°
2026-04-22 13:53 51.23804 -0.94943 411 ft 0 kts 309°